Time;durP1;ratioP1;P1;durP2;ratioP2;P2;SDS_P1;SDS_P2;PMS_P1;PMS_P2;Temp;Humidity;BMP_temperature;BMP_pressure;BME280_temperature;BME280_humidity;BME280_pressure;Samples;Min_cycle;Max_cycle;Signal;HPM_P1;HPM_P2
2022/10/13 00:00:58;;;;;;;66.32;27.08;;;6.90;99.90;;;5.90;100.00;97484.63;6204065;23;20224;-66
2022/10/13 00:03:25;;;;;;;61.47;24.80;;;6.90;99.90;;;5.96;100.00;97484.50;6203978;23;20024;-66
2022/10/13 00:05:52;;;;;;;85.55;28.63;;;7.00;99.90;;;5.92;100.00;97480.28;6202688;23;20016;-66
2022/10/13 00:08:20;;;;;;;45.78;23.60;;;7.00;99.90;;;5.87;100.00;97483.81;6203929;23;20031;-66
2022/10/13 00:10:49;;;;;;;48.33;22.67;;;7.00;99.90;;;5.92;100.00;97478.53;6204163;23;20047;-66
2022/10/13 00:13:18;;;;;;;30.77;17.60;;;7.10;99.90;;;6.13;100.00;97482.31;6204052;23;20401;-66
2022/10/13 00:15:46;;;;;;;24.63;15.80;;;7.10;99.90;;;6.27;100.00;97484.53;6205410;23;20028;-65
2022/10/13 00:18:15;;;;;;;23.77;15.48;;;7.20;99.90;;;6.41;100.00;97474.72;6204744;23;20962;-66
2022/10/13 00:20:48;;;;;;;38.28;20.38;;;7.30;99.90;;;6.42;100.00;97480.72;6203563;23;20036;-66
2022/10/13 00:23:16;;;;;;;29.52;17.83;;;7.20;99.90;;;6.53;100.00;97481.25;6203548;23;20032;-66
2022/10/13 00:25:45;;;;;;;28.90;16.63;;;7.20;99.90;;;6.55;100.00;97479.50;6177514;23;20021;-65
2022/10/13 00:28:14;;;;;;;40.53;19.85;;;7.30;99.90;;;6.59;100.00;97478.53;6203246;23;20027;-66
2022/10/13 00:30:41;;;;;;;47.47;18.85;;;7.30;99.90;;;6.67;100.00;97467.97;6203796;23;20020;-66
2022/10/13 00:33:10;;;;;;;32.20;15.95;;;7.30;99.90;;;6.53;100.00;97467.53;6201700;23;20059;-66
2022/10/13 00:35:46;;;;;;;32.72;16.98;;;7.40;99.90;;;6.67;100.00;97465.41;6201651;23;20035;-66
2022/10/13 00:38:14;;;;;;;68.75;25.38;;;7.40;99.90;;;6.41;100.00;97473.84;6203825;23;20024;-66
2022/10/13 00:40:53;;;;;;;95.93;25.23;;;7.40;99.90;;;6.26;100.00;97464.81;6200885;23;20047;-66
2022/10/13 00:43:45;;;;;;;412.05;39.47;;;7.40;99.90;;;6.07;100.00;97461.91;6204096;23;20047;-65
2022/10/13 00:46:14;;;;;;;148.75;28.42;;;7.30;99.90;;;6.08;100.00;97459.25;6212536;23;20542;-64
2022/10/13 00:48:41;;;;;;;47.22;20.67;;;7.30;99.90;;;6.31;100.00;97464.69;6203648;23;20035;-65
2022/10/13 00:51:12;;;;;;;31.88;16.77;;;7.30;99.90;;;6.36;100.00;97465.41;6202293;23;20794;-65
2022/10/13 00:53:39;;;;;;;113.22;28.23;;;7.20;99.90;;;6.06;100.00;97470.50;6202887;23;20540;-65
2022/10/13 00:56:10;;;;;;;68.90;22.63;;;7.20;99.90;;;6.11;100.00;97476.38;6204154;23;20032;-65
2022/10/13 00:58:39;;;;;;;150.07;27.10;;;7.10;99.90;;;6.10;100.00;97474.69;6204753;23;20036;-66
2022/10/13 01:01:07;;;;;;;135.82;26.77;;;7.10;99.90;;;5.95;100.00;97467.34;6204872;23;20024;-65
2022/10/13 01:03:35;;;;;;;132.25;27.23;;;7.10;99.90;;;5.83;100.00;97473.63;6205943;23;20028;-65
2022/10/13 01:06:04;;;;;;;185.98;29.92;;;7.10;99.90;;;5.71;100.00;97472.22;6204747;23;20386;-66
2022/10/13 01:08:32;;;;;;;66.80;20.23;;;7.00;99.90;;;5.83;100.00;97471.06;6205643;23;20024;-66
2022/10/13 01:11:46;;;;;;;140.60;22.38;;;7.00;99.90;;;5.94;100.00;97471.66;6207012;23;20017;-65
2022/10/13 01:14:34;;;;;;;170.40;25.48;;;7.00;99.90;;;5.94;100.00;97470.78;6206049;23;20024;-66
2022/10/13 01:17:43;;;;;;;105.88;20.10;;;7.00;99.90;;;5.85;100.00;97477.84;6205047;23;20027;-67
2022/10/13 01:20:32;;;;;;;129.52;20.75;;;6.90;99.90;;;6.01;100.00;97477.50;6205455;23;20020;-65
2022/10/13 01:23:11;;;;;;;214.38;26.90;;;7.00;99.90;;;5.87;100.00;97470.09;6206517;23;20024;-65
2022/10/13 01:25:47;;;;;;;227.07;30.70;;;7.00;99.90;;;5.96;100.00;97463.91;6206675;23;20100;-66
2022/10/13 01:28:32;;;;;;;288.15;29.05;;;7.00;99.90;;;5.98;100.00;97464.72;6206748;23;20024;-66
2022/10/13 01:31:33;;;;;;;229.25;32.17;;;7.00;99.90;;;5.80;100.00;97466.00;6205390;23;20021;-66
2022/10/13 01:34:10;;;;;;;94.07;22.02;;;7.00;99.90;;;5.86;100.00;97452.94;6192589;23;20047;-66
2022/10/13 01:37:55;;;;;;;90.68;20.98;;;7.00;99.90;;;5.88;100.00;97458.91;6205086;23;20028;-65
2022/10/13 01:40:39;;;;;;;117.97;22.20;;;7.00;99.90;;;6.00;100.00;97450.06;6026984;23;20027;-65
2022/10/13 01:43:15;;;;;;;33.75;17.92;;;7.10;99.90;;;6.12;100.00;97447.16;6003942;23;20031;-66
2022/10/13 01:46:12;;;;;;;70.43;23.30;;;7.10;99.90;;;6.04;100.00;97447.38;6177146;23;20063;-66
2022/10/13 01:48:43;;;;;;;118.22;29.33;;;7.20;99.90;;;5.92;100.00;97439.91;6203748;23;20031;-66
2022/10/13 01:51:15;;;;;;;87.38;25.17;;;7.20;99.90;;;5.78;100.00;97453.16;6207243;23;20025;-66
2022/10/13 01:53:45;;;;;;;48.95;22.38;;;7.20;99.90;;;5.85;100.00;97428.91;6205928;23;20120;-66
2022/10/13 01:56:12;;;;;;;73.15;22.88;;;7.20;99.90;;;5.79;100.00;97431.66;6205607;23;20043;-65
2022/10/13 01:58:40;;;;;;;53.58;20.77;;;7.20;99.90;;;5.73;100.00;97436.97;6206980;23;20021;-66
2022/10/13 02:01:31;;;;;;;76.60;26.25;;;7.20;99.90;;;5.67;100.00;97424.25;6205887;23;20068;-65
2022/10/13 02:04:33;;;;;;;65.20;22.55;;;7.20;99.90;;;5.78;100.00;97421.41;6204405;23;20023;-65
2022/10/13 02:07:18;;;;;;;73.07;24.80;;;7.10;99.90;;;5.63;100.00;97415.78;6205942;23;20472;-66
2022/10/13 02:10:21;;;;;;;46.85;19.90;;;7.10;99.90;;;5.84;100.00;97414.34;6215878;23;20480;-65
2022/10/13 02:12:56;;;;;;;97.03;25.70;;;7.00;99.90;;;5.58;100.00;97425.31;6207159;23;20527;-66
2022/10/13 02:15:58;;;;;;;59.22;22.75;;;6.90;99.90;;;5.55;100.00;97411.69;6203896;23;20028;-66
2022/10/13 02:18:30;;;;;;;131.02;24.67;;;6.90;99.90;;;5.54;100.00;97416.00;6128308;23;20029;-66
2022/10/13 02:20:58;;;;;;;59.40;17.63;;;6.80;99.90;;;5.46;100.00;97405.03;6204713;23;20037;-66
2022/10/13 02:23:26;;;;;;;137.55;21.90;;;6.70;99.90;;;5.40;100.00;97400.88;6207484;23;20035;-66
2022/10/13 02:25:56;;;;;;;173.50;27.80;;;6.70;99.90;;;5.40;100.00;97394.88;6205789;23;20021;-65
2022/10/13 02:28:23;;;;;;;139.70;26.08;;;6.60;99.90;;;5.42;100.00;97400.84;6208032;23;20025;-65
2022/10/13 02:30:50;;;;;;;94.88;22.65;;;6.70;99.90;;;5.44;100.00;97399.91;6206400;23;20086;-66
2022/10/13 02:33:17;;;;;;;82.47;24.38;;;6.60;99.90;;;5.42;100.00;97406.00;6181786;23;20024;-66
2022/10/13 02:35:44;;;;;;;39.45;17.67;;;6.70;99.90;;;5.65;100.00;97401.09;6179723;23;20029;-66
2022/10/13 02:38:11;;;;;;;29.92;15.70;;;6.80;99.90;;;5.86;100.00;97398.84;6206357;23;20025;-66
2022/10/13 02:40:38;;;;;;;38.88;17.98;;;6.90;99.90;;;6.04;100.00;97398.41;6207834;23;20028;-66
2022/10/13 02:43:05;;;;;;;35.53;18.73;;;7.00;99.90;;;6.11;100.00;97393.06;6209109;23;20061;-66
2022/10/13 02:45:32;;;;;;;24.42;15.38;;;7.00;99.90;;;6.19;100.00;97389.41;6206692;23;20020;-66
2022/10/13 02:47:59;;;;;;;29.02;16.80;;;7.10;99.90;;;6.12;100.00;97389.63;6207957;23;20020;-66
2022/10/13 02:50:26;;;;;;;39.88;19.10;;;7.20;99.90;;;6.35;100.00;97369.19;6207089;23;20025;-66
2022/10/13 02:52:53;;;;;;;34.17;18.95;;;7.20;99.90;;;6.42;100.00;97365.53;6208942;23;20063;-66
2022/10/13 02:55:20;;;;;;;25.20;14.20;;;7.30;99.90;;;6.52;100.00;97355.78;6207721;23;20029;-66
2022/10/13 02:57:47;;;;;;;27.40;15.88;;;7.30;99.90;;;6.61;100.00;97352.09;6206230;23;20069;-65
2022/10/13 03:00:15;;;;;;;45.70;20.88;;;7.50;99.90;;;6.49;100.00;97359.28;6208553;23;20038;-65
2022/10/13 03:02:42;;;;;;;49.30;21.40;;;7.50;99.90;;;6.35;100.00;97355.44;6203764;23;20464;-66
2022/10/13 03:05:09;;;;;;;42.20;19.85;;;7.60;99.90;;;6.43;100.00;97333.72;6208010;23;20021;-65
2022/10/13 03:07:37;;;;;;;39.15;19.15;;;7.60;99.90;;;6.63;100.00;97334.84;6209206;23;20102;-66
2022/10/13 03:10:04;;;;;;;45.17;20.02;;;7.70;99.90;;;6.67;100.00;97326.94;6207025;23;20492;-66
2022/10/13 03:12:31;;;;;;;50.17;22.10;;;7.70;99.90;;;6.62;100.00;97330.56;6208272;23;20021;-65
2022/10/13 03:14:58;;;;;;;35.80;18.23;;;7.80;99.90;;;6.70;100.00;97321.72;6207593;23;20044;-66
2022/10/13 03:17:26;;;;;;;45.22;19.95;;;7.80;99.90;;;6.50;100.00;97324.06;6207393;23;20021;-66
2022/10/13 03:19:52;;;;;;;33.63;17.77;;;7.90;99.90;;;6.55;100.00;97321.34;6209125;23;20024;-65
2022/10/13 03:22:19;;;;;;;34.15;17.88;;;7.90;99.90;;;6.62;100.00;97318.53;6206761;23;20021;-66
2022/10/13 03:24:47;;;;;;;44.15;19.55;;;7.90;99.90;;;6.52;100.00;97317.09;6208674;23;20021;-65
2022/10/13 03:27:14;;;;;;;39.00;18.45;;;7.90;99.90;;;6.47;100.00;97326.72;6207953;23;20404;-66
2022/10/13 03:29:41;;;;;;;54.10;19.75;;;7.90;99.90;;;6.35;100.00;97319.38;6231675;23;20024;-65
2022/10/13 03:32:08;;;;;;;47.40;20.00;;;7.90;99.90;;;6.24;100.00;97329.97;6205342;23;20024;-66
2022/10/13 03:34:35;;;;;;;48.88;19.40;;;7.80;99.90;;;6.12;100.00;97294.28;6203451;23;20080;-65
2022/10/13 03:37:02;;;;;;;45.15;20.73;;;7.70;99.90;;;6.18;100.00;97292.38;6204430;23;20021;-66
2022/10/13 03:39:29;;;;;;;52.13;19.52;;;7.60;99.90;;;6.09;100.00;97297.78;6209004;23;20029;-65
2022/10/13 03:41:56;;;;;;;42.92;19.58;;;7.60;99.90;;;5.98;100.00;97282.63;6206002;23;20640;-65
2022/10/13 03:44:23;;;;;;;51.42;21.15;;;7.60;99.90;;;6.05;100.00;97284.13;6208884;23;20055;-66
2022/10/13 03:46:51;;;;;;;41.90;17.30;;;7.50;99.90;;;6.15;100.00;97283.88;6208198;23;20052;-65
2022/10/13 03:49:18;;;;;;;45.65;18.75;;;7.40;99.90;;;6.05;100.00;97303.91;6208599;23;20029;-65
2022/10/13 03:51:45;;;;;;;49.72;19.98;;;7.30;99.90;;;6.09;100.00;97287.47;6209158;23;20032;-65
2022/10/13 03:54:13;;;;;;;50.25;20.95;;;7.30;99.90;;;5.94;100.00;97293.91;6208296;23;20024;-65
2022/10/13 03:56:41;;;;;;;45.50;19.27;;;7.20;99.90;;;6.07;100.00;97290.09;6208061;23;20029;-66
2022/10/13 03:59:11;;;;;;;48.40;19.35;;;7.20;99.90;;;6.00;100.00;97295.47;6207266;23;20024;-65
2022/10/13 04:01:39;;;;;;;51.63;21.05;;;7.20;99.90;;;5.95;100.00;97295.59;6204765;23;20024;-66
2022/10/13 04:04:08;;;;;;;50.67;19.35;;;7.20;99.90;;;5.88;100.00;97276.00;6207058;23;20578;-65
2022/10/13 04:06:34;;;;;;;44.70;18.50;;;7.20;99.90;;;5.92;100.00;97261.31;6205173;23;20021;-66
2022/10/13 04:09:02;;;;;;;46.83;17.98;;;7.20;99.90;;;5.99;100.00;97253.38;6206901;23;20485;-65
2022/10/13 04:11:29;;;;;;;53.95;20.23;;;7.10;99.90;;;5.94;100.00;97252.69;6203748;23;20024;-65
2022/10/13 04:13:57;;;;;;;58.10;21.92;;;7.10;99.90;;;5.92;100.00;97261.31;6206630;23;20039;-65
2022/10/13 04:16:28;;;;;;;63.65;23.33;;;7.10;99.90;;;5.96;100.00;97258.66;6206488;23;20032;-65
2022/10/13 04:19:02;;;;;;;61.15;19.70;;;7.10;99.90;;;6.01;100.00;97261.09;6204768;23;20476;-65
2022/10/13 04:21:33;;;;;;;67.55;22.00;;;7.10;99.90;;;5.90;100.00;97271.66;6204642;23;20028;-66
2022/10/13 04:24:01;;;;;;;80.05;22.65;;;7.10;99.90;;;5.99;100.00;97268.84;6207123;23;20352;-65
2022/10/13 04:26:32;;;;;;;111.00;23.38;;;7.10;99.90;;;5.99;100.00;97268.00;6207382;23;20048;-66
2022/10/13 04:29:01;;;;;;;67.57;20.80;;;7.10;99.90;;;5.99;100.00;97273.16;6206887;23;20391;-65
2022/10/13 04:31:29;;;;;;;36.60;15.95;;;7.10;99.90;;;6.24;100.00;97271.53;6203378;23;20121;-65
2022/10/13 04:33:57;;;;;;;29.08;14.63;;;7.10;99.90;;;6.40;100.00;97247.88;6203530;23;20016;-65
2022/10/13 04:36:25;;;;;;;35.70;16.73;;;7.20;99.90;;;6.47;100.00;97232.16;6205653;23;20036;-65
2022/10/13 04:38:53;;;;;;;40.03;17.20;;;7.20;99.90;;;6.45;100.00;97223.66;6207224;23;20028;-65
2022/10/13 04:41:21;;;;;;;27.55;14.02;;;7.20;99.90;;;6.56;100.00;97205.25;6206796;23;20024;-66
2022/10/13 04:43:50;;;;;;;42.83;17.00;;;7.30;99.90;;;6.27;100.00;97204.44;6205490;23;20024;-66
2022/10/13 04:46:24;;;;;;;41.97;17.55;;;7.40;99.90;;;6.23;100.00;97186.56;6203375;23;20017;-65
2022/10/13 04:48:51;;;;;;;42.40;18.20;;;7.40;99.90;;;6.21;100.00;97183.19;6207017;23;20038;-65
2022/10/13 04:51:22;;;;;;;54.90;20.73;;;7.50;99.90;;;6.12;100.00;97183.47;6207669;23;20062;-65
2022/10/13 04:53:55;;;;;;;53.97;22.10;;;7.40;99.90;;;6.08;100.00;97186.13;6205355;23;20021;-65
2022/10/13 04:56:23;;;;;;;51.85;20.35;;;7.40;99.90;;;6.10;100.00;97177.53;6205712;23;20028;-65
2022/10/13 04:58:50;;;;;;;34.88;16.25;;;7.40;99.90;;;6.28;100.00;97182.94;6205519;23;20031;-66
2022/10/13 05:01:21;;;;;;;32.38;15.52;;;7.40;99.90;;;6.55;100.00;97169.22;6207196;23;20028;-65
2022/10/13 05:03:54;;;;;;;25.83;14.18;;;7.40;99.90;;;6.64;100.00;97177.47;6206714;23;20355;-66
2022/10/13 05:06:25;;;;;;;35.10;15.63;;;7.50;99.90;;;6.75;100.00;97177.13;6206684;23;20020;-65
2022/10/13 05:08:52;;;;;;;30.77;15.32;;;7.50;99.90;;;6.82;100.00;97180.31;6205800;23;20020;-66
2022/10/13 05:11:19;;;;;;;44.67;18.17;;;7.50;99.90;;;6.79;100.00;97178.69;6206568;23;20076;-66
2022/10/13 05:13:47;;;;;;;47.30;19.83;;;7.60;99.90;;;6.64;100.00;97182.63;6216742;23;20027;-66
2022/10/13 05:16:17;;;;;;;41.78;20.38;;;7.50;99.90;;;6.56;100.00;97170.88;6204823;23;20028;-65
2022/10/13 05:18:44;;;;;;;49.03;20.48;;;7.40;99.90;;;6.63;100.00;97168.03;6208130;23;20031;-66
2022/10/13 05:21:18;;;;;;;49.15;20.65;;;7.50;99.90;;;6.70;100.00;97168.69;6207205;23;20021;-65
2022/10/13 05:23:45;;;;;;;41.58;20.17;;;7.50;99.90;;;6.83;100.00;97162.22;6206337;23;20028;-66
2022/10/13 05:26:17;;;;;;;48.22;22.42;;;7.60;99.90;;;6.80;100.00;97162.31;6207322;23;20658;-65
2022/10/13 05:28:44;;;;;;;46.75;20.73;;;7.70;99.90;;;6.88;100.00;97155.16;6207432;23;20105;-65
2022/10/13 05:31:21;;;;;;;35.15;16.35;;;7.80;99.90;;;6.92;100.00;97155.91;6207359;23;20048;-65
2022/10/13 05:33:50;;;;;;;30.83;16.58;;;7.80;99.90;;;7.02;100.00;97152.09;6206376;23;20017;-65
2022/10/13 05:36:24;;;;;;;30.70;15.10;;;7.90;99.90;;;7.15;100.00;97144.75;6207563;23;20021;-66
2022/10/13 05:38:54;;;;;;;23.23;12.98;;;8.00;99.90;;;7.17;100.00;97140.38;6206142;23;20039;-65
2022/10/13 05:41:23;;;;;;;22.10;12.18;;;8.10;99.90;;;7.35;100.00;97110.47;6207090;23;20562;-66
2022/10/13 05:43:56;;;;;;;26.42;14.65;;;8.20;99.90;;;7.48;100.00;97121.19;6207148;23;20403;-65
2022/10/13 05:46:24;;;;;;;27.55;14.80;;;8.30;99.90;;;7.57;100.00;97120.81;6206645;23;20021;-65
2022/10/13 05:48:51;;;;;;;39.13;19.08;;;8.40;99.90;;;7.46;100.00;97118.69;6207592;23;20025;-66
2022/10/13 05:51:30;;;;;;;46.70;24.90;;;8.50;99.90;;;7.38;100.00;97128.44;6206189;23;20025;-64
2022/10/13 05:54:09;;;;;;;27.13;17.70;;;8.60;99.90;;;7.62;100.00;97136.16;6203768;23;20023;-66
2022/10/13 05:56:41;;;;;;;27.52;15.45;;;8.60;99.90;;;7.74;100.00;97123.63;6204770;23;20082;-66
2022/10/13 05:59:12;;;;;;;24.02;14.90;;;8.60;99.90;;;7.87;100.00;97107.66;6205610;23;20477;-65
2022/10/13 06:01:41;;;;;;;25.77;13.38;;;8.70;99.90;;;7.90;100.00;97103.19;6205160;23;20476;-66
2022/10/13 06:04:16;;;;;;;40.95;23.15;;;8.70;99.90;;;7.92;100.00;97088.47;6205598;23;20087;-66
2022/10/13 06:06:43;;;;;;;106.03;51.38;;;8.70;99.90;;;7.60;100.00;97104.41;6205559;23;20086;-66
2022/10/13 06:09:10;;;;;;;79.57;42.80;;;8.80;99.90;;;7.56;100.00;97108.00;6207840;23;20353;-66
2022/10/13 06:11:37;;;;;;;49.30;25.73;;;8.80;99.90;;;7.38;100.00;97110.34;6208206;23;20048;-65
2022/10/13 06:14:04;;;;;;;36.85;19.92;;;8.80;99.90;;;7.46;100.00;97094.59;6207547;23;20032;-66
2022/10/13 06:16:30;;;;;;;39.03;18.75;;;8.80;99.90;;;7.64;100.00;97088.72;6206818;23;20039;-66
2022/10/13 06:18:57;;;;;;;36.05;17.80;;;8.80;99.90;;;7.77;100.00;97085.66;6206741;23;20031;-66
2022/10/13 06:21:24;;;;;;;35.72;19.23;;;8.80;99.90;;;7.84;100.00;97080.19;6207608;23;20416;-65
2022/10/13 06:23:51;;;;;;;21.10;13.57;;;8.90;99.90;;;7.93;100.00;97061.72;6207153;23;20364;-65
2022/10/13 06:26:18;;;;;;;29.27;16.55;;;9.00;99.90;;;7.86;100.00;97067.19;6206753;23;20031;-67
2022/10/13 06:28:45;;;;;;;34.90;19.13;;;9.10;99.90;;;7.68;100.00;97076.50;6204059;23;20020;-66
2022/10/13 06:31:16;;;;;;;39.78;20.48;;;9.00;99.90;;;7.51;100.00;97087.50;6205857;23;20098;-65
2022/10/13 06:33:43;;;;;;;30.05;17.98;;;8.90;99.90;;;7.57;100.00;97086.41;6206223;23;20023;-66
2022/10/13 06:36:10;;;;;;;32.55;17.70;;;8.90;99.90;;;7.70;100.00;97078.13;6206065;23;20024;-68
2022/10/13 06:38:37;;;;;;;25.58;16.40;;;8.80;99.90;;;7.79;100.00;97081.28;6205456;23;20029;-67
2022/10/13 06:41:05;;;;;;;36.30;18.63;;;8.80;99.90;;;7.66;100.00;97084.34;6204818;23;20510;-67
2022/10/13 06:43:32;;;;;;;31.20;17.05;;;8.80;99.90;;;7.66;100.00;97080.91;6204956;23;20115;-68
2022/10/13 06:46:06;;;;;;;34.80;18.55;;;8.80;99.90;;;7.63;100.00;97086.19;6201434;23;20083;-68
2022/10/13 06:48:34;;;;;;;36.45;19.52;;;8.90;99.90;;;7.63;100.00;97081.88;6204338;23;20024;-66
2022/10/13 06:51:11;;;;;;;40.05;21.88;;;8.90;99.90;;;7.73;100.00;97083.19;6205977;23;20027;-67
2022/10/13 06:53:38;;;;;;;32.33;18.55;;;9.00;99.90;;;7.73;100.00;97087.50;6203226;23;20354;-67
2022/10/13 06:56:06;;;;;;;37.08;19.90;;;8.90;99.90;;;7.55;100.00;97089.09;6205131;23;20032;-65
2022/10/13 06:58:35;;;;;;;31.35;18.75;;;8.90;99.90;;;7.72;100.00;97086.66;6206717;23;20031;-65
2022/10/13 07:01:03;;;;;;;28.23;16.83;;;8.80;99.90;;;7.81;100.00;97082.06;6205114;23;20032;-65
2022/10/13 07:03:31;;;;;;;26.75;18.05;;;8.80;99.90;;;7.78;100.00;97090.78;6207805;23;20103;-65
2022/10/13 07:06:03;;;;;;;37.35;20.65;;;8.80;99.90;;;7.77;100.00;97094.25;6207539;23;20512;-65
2022/10/13 07:08:31;;;;;;;34.45;20.45;;;8.80;99.90;;;7.83;100.00;97086.25;6207973;23;20021;-64
2022/10/13 07:10:58;;;;;;;30.73;17.20;;;8.90;99.90;;;8.13;100.00;97073.00;6207193;23;20756;-67
2022/10/13 07:13:25;;;;;;;37.63;19.48;;;9.00;99.90;;;8.35;100.00;97066.03;6205947;23;20298;-67
2022/10/13 07:15:52;;;;;;;29.92;18.25;;;9.20;99.90;;;8.55;100.00;97066.97;6205366;23;20469;-67
2022/10/13 07:18:19;;;;;;;32.47;20.48;;;9.30;99.90;;;8.49;100.00;97062.06;6207676;23;20380;-67
2022/10/13 07:20:45;;;;;;;35.25;19.45;;;9.50;99.90;;;8.41;100.00;97062.38;6204591;23;20021;-66
2022/10/13 07:23:13;;;;;;;32.85;17.52;;;9.60;99.90;;;8.60;100.00;97052.13;6205476;23;20515;-67
2022/10/13 07:25:39;;;;;;;31.70;19.70;;;9.60;99.90;;;8.49;100.00;97042.22;6205538;23;20702;-63
2022/10/13 07:28:06;;;;;;;34.95;18.42;;;9.50;99.90;;;8.78;100.00;97030.59;6206085;23;20024;-67
2022/10/13 07:30:33;;;;;;;32.33;18.75;;;9.70;99.90;;;9.13;100.00;97020.41;6207789;23;20032;-66
2022/10/13 07:33:01;;;;;;;32.72;18.27;;;9.80;99.90;;;9.17;100.00;97015.94;6204699;23;20359;-66
2022/10/13 07:35:28;;;;;;;32.00;16.25;;;9.90;99.90;;;9.31;100.00;97023.91;6206732;23;20082;-67
2022/10/13 07:37:56;;;;;;;28.52;17.08;;;10.00;99.90;;;9.27;100.00;97018.94;6206708;23;20129;-65
2022/10/13 07:40:23;;;;;;;31.67;17.98;;;10.00;99.90;;;9.27;100.00;97013.75;6205467;23;20028;-68
2022/10/13 07:42:50;;;;;;;34.58;21.25;;;9.90;99.90;;;9.38;100.00;97012.34;6206675;23;20043;-68
2022/10/13 07:45:17;;;;;;;39.38;23.02;;;10.00;99.90;;;9.27;100.00;97012.00;6207643;23;20483;-67
2022/10/13 07:47:44;;;;;;;38.03;21.30;;;10.00;99.90;;;9.38;100.00;97012.34;6205259;23;20021;-68
2022/10/13 07:50:11;;;;;;;37.20;21.63;;;10.10;99.90;;;9.47;100.00;97013.66;6205744;23;20549;-68
2022/10/13 07:52:38;;;;;;;37.13;21.13;;;10.10;99.90;;;9.58;100.00;97011.41;6207209;23;20020;-67
2022/10/13 07:55:06;;;;;;;33.85;19.08;;;10.20;99.90;;;9.69;100.00;97012.63;6206445;23;20055;-66
2022/10/13 07:57:33;;;;;;;35.42;21.33;;;10.30;99.90;;;9.65;100.00;97019.72;6206708;23;20039;-65
2022/10/13 08:00:00;;;;;;;31.90;19.52;;;10.40;99.90;;;9.77;100.00;97013.94;6230885;23;20021;-65
2022/10/13 08:02:28;;;;;;;40.55;23.30;;;10.50;99.90;;;9.72;100.00;97025.47;6205360;23;20390;-65
2022/10/13 08:04:55;;;;;;;45.17;26.33;;;10.50;99.90;;;9.66;100.00;97023.16;6207357;23;20028;-66
2022/10/13 08:07:22;;;;;;;46.80;26.73;;;10.60;99.90;;;9.68;100.00;97014.41;6206817;23;20024;-66
2022/10/13 08:09:49;;;;;;;49.42;25.48;;;10.70;99.90;;;9.72;100.00;97025.47;6205787;23;20024;-65
2022/10/13 08:12:16;;;;;;;43.90;27.00;;;10.70;99.90;;;9.55;100.00;97028.84;6205472;23;20166;-65
2022/10/13 08:14:43;;;;;;;45.60;26.33;;;10.70;99.90;;;9.52;100.00;97021.22;6206477;23;20017;-65
2022/10/13 08:17:10;;;;;;;42.60;25.35;;;10.70;99.90;;;9.55;100.00;97018.47;6206072;23;20032;-66
2022/10/13 08:19:37;;;;;;;36.65;21.85;;;10.70;99.90;;;9.72;100.00;97018.53;6206632;23;20025;-65
2022/10/13 08:22:04;;;;;;;45.50;24.65;;;10.70;99.90;;;9.66;100.00;97018.81;6206618;23;20025;-66
2022/10/13 08:24:36;;;;;;;52.80;29.00;;;10.70;99.90;;;9.65;100.00;97017.16;6206860;23;20162;-66
2022/10/13 08:27:03;;;;;;;49.75;29.30;;;10.80;99.90;;;9.62;100.00;97023.31;6206284;23;20031;-66
2022/10/13 08:29:29;;;;;;;47.50;28.42;;;10.80;99.90;;;9.59;100.00;97025.19;6204869;23;20039;-65
2022/10/13 08:31:56;;;;;;;47.30;24.83;;;10.80;99.90;;;9.76;100.00;97017.47;6206106;23;20482;-65
2022/10/13 08:34:24;;;;;;;46.70;25.60;;;10.80;99.90;;;9.90;100.00;97008.16;6205841;23;20379;-67
2022/10/13 08:36:55;;;;;;;38.22;22.15;;;10.90;99.90;;;10.01;100.00;97011.06;6206068;23;20051;-66
2022/10/13 08:39:23;;;;;;;45.97;25.05;;;10.90;99.90;;;9.98;100.00;97019.84;6206420;23;20040;-66
2022/10/13 08:41:50;;;;;;;31.48;19.67;;;11.00;99.90;;;10.09;100.00;97014.13;6206538;23;20108;-66
2022/10/13 08:44:41;;;;;;;34.90;20.92;;;10.90;99.90;;;10.20;100.00;97009.25;6206654;23;20103;-65
2022/10/13 08:47:59;;;;;;;31.08;18.77;;;11.00;99.90;;;10.38;100.00;97010.13;6205581;23;20020;-66
2022/10/13 08:50:32;;;;;;;32.97;18.83;;;11.00;99.90;;;10.47;100.00;97001.03;6203976;23;20025;-65
2022/10/13 08:53:01;;;;;;;35.70;21.10;;;11.20;99.90;;;10.42;100.00;97008.19;6204699;23;20024;-66
2022/10/13 08:55:45;;;;;;;36.15;22.27;;;11.30;99.90;;;10.52;100.00;97006.81;6204306;23;20507;-66
2022/10/13 08:58:22;;;;;;;46.03;25.25;;;11.40;99.90;;;10.22;100.00;97022.16;6203743;23;20021;-66
2022/10/13 09:01:22;;;;;;;47.95;27.08;;;11.50;99.90;;;10.11;100.00;97032.22;6205600;23;20035;-65
2022/10/13 09:03:55;;;;;;;35.05;22.42;;;11.40;99.90;;;9.99;100.00;97052.66;6217357;23;20170;-66
2022/10/13 09:06:27;;;;;;;39.65;23.50;;;11.20;99.90;;;9.99;100.00;97055.25;6204516;23;20021;-66
2022/10/13 09:09:00;;;;;;;26.95;18.60;;;11.10;99.90;;;10.11;100.00;97043.41;6204499;23;20903;-66
2022/10/13 09:11:32;;;;;;;42.05;24.15;;;11.10;99.90;;;10.07;100.00;97051.44;6206146;23;20453;-65
2022/10/13 09:14:13;;;;;;;37.33;22.73;;;11.10;99.90;;;10.20;100.00;97048.16;6205686;23;20531;-65
2022/10/13 09:16:43;;;;;;;33.90;21.80;;;11.10;99.90;;;10.28;100.00;97045.16;6204999;23;20036;-66
2022/10/13 09:19:35;;;;;;;29.50;18.45;;;11.10;99.90;;;10.49;100.00;97032.94;6205894;23;20050;-66
2022/10/13 09:22:23;;;;;;;30.85;19.65;;;11.20;99.90;;;10.70;100.00;97011.94;6202405;23;20329;-65
2022/10/13 09:25:21;;;;;;;42.05;23.38;;;11.30;99.90;;;10.59;100.00;97020.31;6203136;23;20032;-65
2022/10/13 09:27:52;;;;;;;44.15;22.85;;;11.60;99.90;;;10.54;100.00;97022.31;6206988;23;20110;-65
2022/10/13 09:30:43;;;;;;;44.95;23.70;;;11.60;99.90;;;10.61;100.00;97010.69;6206856;23;20017;-66
2022/10/13 09:33:10;;;;;;;42.63;24.33;;;11.70;99.90;;;10.78;100.00;97005.44;6203509;23;20043;-65
2022/10/13 09:35:49;;;;;;;31.90;17.77;;;11.80;99.90;;;11.06;100.00;97003.97;6206005;23;20039;-66
2022/10/13 09:38:20;;;;;;;26.25;17.40;;;11.90;99.90;;;11.29;100.00;96995.78;6203817;23;20343;-65
2022/10/13 09:41:09;;;;;;;31.63;17.95;;;12.10;99.90;;;11.42;100.00;96953.53;6201670;23;20025;-65
2022/10/13 09:44:06;;;;;;;26.20;15.75;;;12.10;99.90;;;11.55;100.00;96938.94;6205903;23;20025;-65
2022/10/13 09:46:48;;;;;;;30.65;15.07;;;12.20;99.90;;;11.72;100.00;96912.81;6201923;23;20693;-65
2022/10/13 09:49:39;;;;;;;20.50;15.23;;;12.40;99.90;;;11.74;100.00;96920.50;6205035;23;20017;-66
2022/10/13 09:52:12;;;;;;;21.30;13.68;;;12.60;99.90;;;11.89;100.00;96916.22;6229275;23;20021;-66
2022/10/13 09:54:39;;;;;;;;;;;12.60;99.90;;;11.82;100.00;96917.47;6204939;23;20054;-66
2022/10/13 09:57:30;;;;;;;28.33;15.30;;;12.70;99.90;;;11.80;100.00;96903.72;6206362;23;19916;-66
2022/10/13 10:00:14;;;;;;;27.83;17.33;;;12.80;99.90;;;11.88;100.00;96907.59;6208933;23;20032;-66
2022/10/13 10:02:57;;;;;;;25.52;17.35;;;12.90;99.90;;;11.63;100.00;96908.16;6216788;23;20031;-66
2022/10/13 10:05:54;;;;;;;28.10;15.45;;;13.00;99.90;;;11.81;100.00;96900.19;6204728;23;20016;-66
2022/10/13 10:08:57;;;;;;;27.75;14.98;;;13.20;99.90;;;12.18;100.00;96852.06;6204901;23;20370;-66
2022/10/13 10:11:33;;;;;;;24.17;14.40;;;13.40;99.90;;;12.43;100.00;96829.72;6174639;23;20050;-66
2022/10/13 10:14:24;;;;;;;22.13;14.40;;;13.60;99.90;;;12.30;100.00;96814.88;6204046;23;20506;-66
2022/10/13 10:17:34;;;;;;;20.25;11.57;;;13.80;99.90;;;12.40;100.00;96801.28;6204854;23;20480;-66
2022/10/13 10:20:46;;;;;;;15.45;10.35;;;13.80;99.90;;;12.75;100.00;96776.47;6204621;23;20025;-66
2022/10/13 10:23:31;;;;;;;26.90;11.45;;;13.90;99.90;;;12.63;100.00;96785.06;6202706;23;20021;-66
2022/10/13 10:26:16;;;;;;;16.35;11.13;;;14.30;99.90;;;12.48;100.00;96794.69;6202830;23;20025;-65
2022/10/13 10:29:23;;;;;;;20.15;11.60;;;14.40;99.90;;;12.70;100.00;96782.91;6202655;23;20024;-65
2022/10/13 10:32:28;;;;;;;20.05;12.20;;;14.40;99.90;;;12.79;100.00;96812.72;6228570;23;20048;-66
2022/10/13 10:35:33;;;;;;;20.00;11.98;;;14.40;99.90;;;12.82;100.00;96812.53;6204669;23;20025;-66